Coker Creek, TN (37314)

10:54 AM EST on December 06, 2016 (GMT -0500)
Tellico Plains Downtown | | Change Station
Active Advisory: Wind Advisory

Elev 919 ft 35.36 °N, 84.29 °W | Updated 5 seconds ago

Rain
Rain
50.9 °F
Feels Like 50.9 °F
N
2.9
Wind Variable Wind from SSW
Gusts 3.5 mph

Today
High -- | Low -- °F
--% Chance of Precip.
Yesterday
High -- | Low -- °F
Precip. -- in
Pressure 29.72 in
Visibility 2.0 miles
Clouds Scattered Clouds 400 ft
Overcast 900 ft
Dew Point 50 °F
Humidity 96%
Rainfall 0.56 in
Snow Depth Not available.
7:32 AM 5:24 PM
Waxing Crescent, 43% visible
METAR KMMI 061535Z AUTO VRB03KT 2SM SCT004 OVC009 10/10 A2972 RMK
Pressure 29.72 in
Visibility 2.0 miles
Clouds Scattered Clouds 400 ft
Overcast 900 ft
Dew Point 50 °F
Humidity 96%
Rainfall 0.56 in
Snow Depth Not available.
7:32 AM 5:24 PM
Waxing Crescent, 43% visible
METAR KMMI 061535Z AUTO VRB03KT 2SM SCT004 OVC009 10/10 A2972 RMK

10-Day Weather Forecast

Almanac

Astronomy

Dec. 06, 2016 Rise Set
Actual Time
Civil Twilight
Nautical Twilight
Astronomical Twilight
Moon
Length of Visible Light
Length of Day
Tomorrow will be .
, % of the Moon is Illuminated

Today's Extremes

State Highs State Lows

Community

WunderPhotos

Upload Photos

1,955,959 photos uploaded!

WunderBlog® & News

Nearby

Air Quality

  Air Quality AQ Index Pollutant
Not available.

Snow Depth

Station Depth Elevation

Earthquake Activity

City Distance Mag. Time & Date
Minimum magnitude displayed is 2.5.

Coastal Water Temperatures

Place Temperature

Stations

Nearby Weather Stations

Station Location Temp. Windchill Dew Point Humidity Wind Precip. Elev Updated Type
                   

Watches & Warnings

Wind Advisory
Issued: 3:18 AM EST Dec. 6, 2016 – National Weather Service

... Wind Advisory remains in effect until 4 PM EST this
afternoon...

* event... south to southwest winds of 15 to 30 mph... with gusts up
to 45 mph.

* Timing... this morning through mid afternoon.

* Impacts... these winds could contribute to fire growth and
spread in areas that still have ongoing wildfires.
Additionally... they may down trees or tree limbs... as well as
power lines. Loose outdoor objects should be secured.
Motorists should be extra cautious to cross winds especially
when driving in the higher elevations.

Precautionary/preparedness actions...

A Wind Advisory means that winds of 26 to 39 mph and/or gusts of
40 to 57 mph are expected or occurring. Winds this strong can
make driving difficult... especially for high profile vehicles.
Use extra caution.